createdAt,value
2023-02-06T00:00:53.446Z,-1.97
2023-02-06T00:03:20.660Z,-1.99
2023-02-06T00:05:59.436Z,-2.02
2023-02-06T00:08:27.954Z,-1.99
2023-02-06T00:10:54.978Z,-2.01
2023-02-06T00:13:22.197Z,-2.02
2023-02-06T00:15:49.222Z,-2.01
2023-02-06T00:18:16.249Z,-2.02
2023-02-06T00:20:43.183Z,-2.00
2023-02-06T00:23:10.335Z,-2.01
2023-02-06T00:25:37.572Z,-2.01
2023-02-06T00:28:05.120Z,-2.01
2023-02-06T00:30:32.138Z,-2.04
2023-02-06T00:32:59.336Z,-2.06
2023-02-06T00:35:26.288Z,-2.06
2023-02-06T00:37:53.389Z,-2.05
2023-02-06T00:40:20.352Z,-2.07
2023-02-06T00:42:47.414Z,-2.08
2023-02-06T00:45:14.332Z,-2.07
2023-02-06T00:47:41.362Z,-2.09
2023-02-06T00:50:09.910Z,-2.10
2023-02-06T00:52:36.851Z,-2.11
2023-02-06T00:55:05.410Z,-2.16
2023-02-06T00:57:32.352Z,-2.15
2023-02-06T00:59:59.334Z,-2.17
2023-02-06T01:02:27.239Z,-2.16
2023-02-06T01:04:54.220Z,-2.19
2023-02-06T01:07:21.192Z,-2.26
2023-02-06T01:09:48.308Z,-2.43
2023-02-06T01:12:15.195Z,-2.37
2023-02-06T01:14:42.155Z,-2.38
2023-02-06T01:17:11.805Z,-2.39
2023-02-06T01:19:39.655Z,-2.39
2023-02-06T01:22:07.588Z,-2.42
2023-02-06T01:24:34.692Z,-2.50
2023-02-06T01:27:01.786Z,-2.51
2023-02-06T01:29:28.722Z,-2.50
2023-02-06T01:31:56.171Z,-2.47
2023-02-06T01:34:23.165Z,-2.47
2023-02-06T01:36:50.126Z,-2.47
2023-02-06T01:39:17.245Z,-2.49
2023-02-06T01:41:44.312Z,-2.47
2023-02-06T01:44:19.382Z,-2.45
2023-02-06T01:46:52.160Z,-2.46
2023-02-06T01:49:39.782Z,-2.45
2023-02-06T01:52:25.587Z,-2.46
2023-02-06T01:55:00.920Z,-2.47
2023-02-06T01:57:29.074Z,-2.49
2023-02-06T01:59:59.388Z,-2.50
2023-02-06T02:02:28.989Z,-2.56
2023-02-06T02:04:58.113Z,-2.55
2023-02-06T02:07:33.336Z,-2.54
2023-02-06T02:10:00.496Z,-2.59
2023-02-06T02:12:28.124Z,-2.60
2023-02-06T02:14:56.727Z,-2.58
2023-02-06T02:18:06.336Z,-2.52
2023-02-06T02:21:07.429Z,-2.53
2023-02-06T02:23:43.948Z,-2.51
2023-02-06T02:26:31.438Z,-2.75
2023-02-06T02:29:16.510Z,-2.74
2023-02-06T02:31:55.469Z,-2.87
2023-02-06T02:34:31.553Z,-2.97
2023-02-06T02:37:00.262Z,-2.97
2023-02-06T02:39:42.221Z,-3.04
2023-02-06T02:42:23.338Z,-3.03
2023-02-06T02:45:36.850Z,-3.06
2023-02-06T02:48:04.049Z,-3.02
2023-02-06T02:50:32.837Z,-3.06
2023-02-06T02:53:02.308Z,-3.01
2023-02-06T02:55:29.492Z,-2.98
2023-02-06T02:58:05.416Z,-3.05
2023-02-06T03:00:37.465Z,-3.05
2023-02-06T03:03:06.605Z,-3.02
2023-02-06T03:05:38.229Z,-3.00
2023-02-06T03:08:11.414Z,-2.96
2023-02-06T03:10:44.074Z,-2.97
2023-02-06T03:13:26.668Z,-3.04
2023-02-06T03:16:05.550Z,-3.01
2023-02-06T03:18:46.533Z,-3.01
2023-02-06T03:21:19.865Z,-2.98
2023-02-06T03:23:50.454Z,-2.94
2023-02-06T03:26:21.156Z,-2.94
2023-02-06T03:28:52.981Z,-2.96
2023-02-06T03:31:33.384Z,-2.98
2023-02-06T03:34:11.090Z,-3.03
2023-02-06T03:36:38.174Z,-3.05
2023-02-06T03:39:05.097Z,-3.04
2023-02-06T03:41:36.191Z,-3.04
2023-02-06T03:44:06.815Z,-3.07
2023-02-06T03:46:37.160Z,-3.10
2023-02-06T03:49:07.778Z,-3.14
2023-02-06T03:51:45.177Z,-3.26
2023-02-06T03:54:16.986Z,-3.29
2023-02-06T03:56:48.855Z,-3.33
2023-02-06T03:59:15.928Z,-3.34
2023-02-06T04:01:45.918Z,-3.36
2023-02-06T04:04:16.641Z,-3.35
2023-02-06T04:06:43.749Z,-3.39
2023-02-06T04:09:10.869Z,-3.37
2023-02-06T04:11:37.899Z,-3.36
2023-02-06T04:14:04.956Z,-3.36
2023-02-06T04:16:31.934Z,-3.34
2023-02-06T04:18:59.045Z,-3.33
2023-02-06T04:21:26.065Z,-3.31
2023-02-06T04:23:53.053Z,-3.33
2023-02-06T04:26:20.023Z,-3.33
2023-02-06T04:28:46.970Z,-3.38
2023-02-06T04:31:14.028Z,-3.38
2023-02-06T04:33:41.168Z,-3.39
2023-02-06T04:36:08.358Z,-3.38
2023-02-06T04:38:35.396Z,-3.38
2023-02-06T04:41:06.635Z,-3.37
2023-02-06T04:43:34.414Z,-3.40
2023-02-06T04:46:01.338Z,-3.43
2023-02-06T04:48:28.509Z,-3.48
2023-02-06T04:50:55.434Z,-3.48
2023-02-06T04:53:22.410Z,-3.47
2023-02-06T04:55:49.425Z,-3.44
2023-02-06T04:58:16.410Z,-3.42
2023-02-06T05:00:43.382Z,-3.38
2023-02-06T05:03:10.341Z,-3.38
2023-02-06T05:05:37.451Z,-3.34
2023-02-06T05:08:04.391Z,-3.30
2023-02-06T05:10:31.405Z,-3.37
2023-02-06T05:12:58.344Z,-3.35
2023-02-06T05:15:25.297Z,-3.39
2023-02-06T05:17:52.355Z,-3.41
2023-02-06T05:20:20.082Z,-3.41
2023-02-06T05:22:47.075Z,-3.46
2023-02-06T05:25:14.074Z,-3.48
2023-02-06T05:27:41.110Z,-3.54
2023-02-06T05:30:08.591Z,-3.58
2023-02-06T05:32:35.588Z,-3.64
2023-02-06T05:35:02.584Z,-3.62
2023-02-06T05:37:29.600Z,-3.58
2023-02-06T05:39:58.517Z,-3.54
2023-02-06T05:42:26.602Z,-3.52
2023-02-06T05:44:53.441Z,-3.51
2023-02-06T05:47:20.456Z,-3.45
2023-02-06T05:49:48.441Z,-3.43
2023-02-06T05:52:16.434Z,-3.39
2023-02-06T05:54:43.233Z,-3.36
2023-02-06T05:57:10.796Z,-3.33
2023-02-06T05:59:37.947Z,-3.29
2023-02-06T06:02:05.166Z,-3.24
2023-02-06T06:04:32.203Z,-3.20
2023-02-06T06:06:59.556Z,-3.20
2023-02-06T06:09:26.577Z,-3.15
2023-02-06T06:11:53.708Z,-3.13
2023-02-06T06:14:20.602Z,-3.11
2023-02-06T06:16:47.537Z,-3.15
2023-02-06T06:19:14.541Z,-3.11
2023-02-06T06:21:41.447Z,-3.09
2023-02-06T06:24:08.359Z,-3.07
2023-02-06T06:26:35.560Z,-3.07
2023-02-06T06:29:03.990Z,-3.08
2023-02-06T06:31:31.054Z,-3.06
2023-02-06T06:33:57.992Z,-3.10
2023-02-06T06:36:24.968Z,-3.09
2023-02-06T06:38:51.887Z,-3.06
2023-02-06T06:41:19.008Z,-3.06
2023-02-06T06:43:45.907Z,-3.05
2023-02-06T06:46:12.818Z,-3.08
2023-02-06T06:48:40.566Z,-3.13
2023-02-06T06:51:07.750Z,-3.09
2023-02-06T06:53:34.808Z,-3.07
2023-02-06T06:56:10.574Z,-3.04
2023-02-06T06:58:37.613Z,-3.07
2023-02-06T07:01:05.244Z,-3.25
2023-02-06T07:03:32.297Z,-3.21
2023-02-06T07:05:59.348Z,-3.21
2023-02-06T07:08:27.065Z,-3.19
2023-02-06T07:10:54.076Z,-3.17
2023-02-06T07:13:21.130Z,-3.13
2023-02-06T07:15:48.062Z,-3.10
2023-02-06T07:18:15.013Z,-3.06
2023-02-06T07:20:42.018Z,-3.03
2023-02-06T07:23:08.958Z,-2.99
2023-02-06T07:25:36.129Z,-2.95
2023-02-06T07:28:03.754Z,-2.85
2023-02-06T07:30:30.682Z,-2.78
2023-02-06T07:32:57.738Z,-2.65
2023-02-06T07:35:24.728Z,-2.57
2023-02-06T07:37:54.561Z,-2.46
2023-02-06T07:40:21.649Z,-2.31
2023-02-06T07:42:48.636Z,-2.26
2023-02-06T07:45:22.057Z,-2.22
2023-02-06T07:47:49.012Z,-2.13
2023-02-06T07:50:16.107Z,-2.06
2023-02-06T07:52:43.017Z,-1.97
2023-02-06T07:55:10.458Z,-1.98
2023-02-06T07:57:37.499Z,-1.97
2023-02-06T08:00:05.517Z,-1.91
2023-02-06T08:02:39.100Z,-1.82
2023-02-06T08:05:06.462Z,-1.80
2023-02-06T08:07:33.399Z,-1.80
2023-02-06T08:10:00.281Z,-1.77
2023-02-06T08:12:30.091Z,-1.78
2023-02-06T08:14:57.058Z,-1.72
2023-02-06T08:17:24.237Z,-1.72
2023-02-06T08:19:51.187Z,-1.74
2023-02-06T08:22:18.148Z,-1.63
2023-02-06T08:24:45.487Z,-1.66
2023-02-06T08:27:12.442Z,-1.57
2023-02-06T08:29:42.816Z,-1.48
2023-02-06T08:32:10.725Z,-1.31
2023-02-06T08:34:39.667Z,-1.25
2023-02-06T08:37:06.695Z,-1.19
2023-02-06T08:39:33.710Z,-1.20
2023-02-06T08:42:00.637Z,-1.10
2023-02-06T08:44:28.050Z,-1.02
2023-02-06T08:47:08.902Z,-0.97
2023-02-06T08:49:37.002Z,-0.96
2023-02-06T08:52:03.927Z,-0.84
2023-02-06T08:54:32.234Z,-0.83
2023-02-06T08:57:01.255Z,-0.93
2023-02-06T08:59:31.341Z,-0.91
2023-02-06T09:01:58.302Z,-0.83
2023-02-06T09:04:25.371Z,-0.80
2023-02-06T09:06:52.405Z,-0.65
2023-02-06T09:09:19.897Z,-0.49
2023-02-06T09:11:46.972Z,-0.42
2023-02-06T09:14:16.511Z,-0.31
2023-02-06T09:16:43.790Z,-0.05
2023-02-06T09:19:11.620Z,-0.01
2023-02-06T09:21:38.876Z,0.07
2023-02-06T09:24:08.578Z,0.09
2023-02-06T09:26:44.816Z,0.09
2023-02-06T09:29:17.357Z,0.23
2023-02-06T09:31:44.641Z,0.34
2023-02-06T09:34:12.782Z,0.24
2023-02-06T09:36:39.959Z,0.34
2023-02-06T09:39:08.979Z,0.38
2023-02-06T09:41:46.820Z,0.45
2023-02-06T09:44:28.318Z,0.40
2023-02-06T09:47:02.678Z,0.47
2023-02-06T09:49:39.361Z,0.62
2023-02-06T09:52:15.587Z,0.53
2023-02-06T09:54:51.450Z,0.89
2023-02-06T09:57:26.052Z,1.07
2023-02-06T10:00:01.584Z,1.29
2023-02-06T10:02:28.552Z,1.35
2023-02-06T10:05:13.359Z,1.27
2023-02-06T10:08:17.011Z,1.43
2023-02-06T10:11:03.731Z,1.65
2023-02-06T10:13:33.525Z,1.77
2023-02-06T10:16:20.239Z,1.89
2023-02-06T10:18:54.182Z,1.67
2023-02-06T10:21:42.758Z,2.18
2023-02-06T10:24:28.603Z,2.27
2023-02-06T10:26:58.491Z,2.22
2023-02-06T10:29:31.942Z,2.07
2023-02-06T10:32:04.465Z,2.21
2023-02-06T10:34:43.604Z,2.38
2023-02-06T10:37:22.763Z,2.41
2023-02-06T10:40:13.426Z,2.52
2023-02-06T10:43:03.375Z,2.55
2023-02-06T10:46:26.147Z,2.51
2023-02-06T10:49:14.086Z,2.46
2023-02-06T10:51:47.641Z,2.62
2023-02-06T10:54:34.975Z,2.83
2023-02-06T10:57:03.250Z,2.87
2023-02-06T10:59:38.044Z,3.08
2023-02-06T11:02:08.081Z,3.07
2023-02-06T11:04:39.458Z,3.18
2023-02-06T11:07:14.761Z,3.19
2023-02-06T11:09:41.892Z,3.35
2023-02-06T11:12:35.367Z,3.47
2023-02-06T11:15:09.381Z,3.35
2023-02-06T11:17:36.643Z,3.50
2023-02-06T11:20:26.778Z,3.31
2023-02-06T11:22:54.268Z,3.40
2023-02-06T11:25:34.089Z,3.29
2023-02-06T11:28:01.724Z,3.07
2023-02-06T11:30:37.841Z,2.97
2023-02-06T11:33:46.981Z,3.06
2023-02-06T11:36:27.514Z,3.16
2023-02-06T11:39:25.760Z,3.04
2023-02-06T11:42:13.732Z,3.21
2023-02-06T11:44:42.078Z,3.33
2023-02-06T11:47:37.178Z,3.57
2023-02-06T11:50:13.514Z,3.86
2023-02-06T11:52:47.045Z,4.15
2023-02-06T11:55:24.722Z,4.23
2023-02-06T11:58:14.405Z,4.47
2023-02-06T12:13:34.243Z,4.11
2023-02-06T12:16:04.152Z,4.03
2023-02-06T12:18:44.065Z,4.06
2023-02-06T12:21:19.962Z,4.09
2023-02-06T12:23:53.168Z,4.16
2023-02-06T12:26:24.090Z,4.14
2023-02-06T12:29:10.326Z,4.20
2023-02-06T12:31:54.101Z,4.11
2023-02-06T12:34:25.945Z,4.15
2023-02-06T12:37:00.742Z,4.05
2023-02-06T12:39:32.603Z,4.10
2023-02-06T12:42:07.113Z,4.21
2023-02-06T12:45:05.165Z,3.86
2023-02-06T12:48:12.351Z,4.15
2023-02-06T12:50:46.883Z,4.42
2023-02-06T12:53:26.614Z,4.60
2023-02-06T12:56:02.851Z,4.55
2023-02-06T12:58:52.520Z,4.49
2023-02-06T13:01:30.011Z,4.50
2023-02-06T13:04:06.224Z,4.56
2023-02-06T13:06:56.967Z,4.75
2023-02-06T13:09:58.205Z,4.81
2023-02-06T13:12:28.446Z,4.77
2023-02-06T13:15:02.166Z,4.55
2023-02-06T13:17:42.914Z,4.66
2023-02-06T13:20:15.088Z,4.46
2023-02-06T13:22:51.201Z,4.51
2023-02-06T13:25:30.570Z,4.49
2023-02-06T13:27:58.742Z,4.46
2023-02-06T13:30:31.805Z,4.19
2023-02-06T13:33:08.809Z,4.43
2023-02-06T13:35:36.180Z,4.42
2023-02-06T13:38:24.860Z,4.35
2023-02-06T13:41:16.662Z,4.12
2023-02-06T13:43:51.238Z,4.21
2023-02-06T13:46:22.546Z,3.79
2023-02-06T13:49:09.331Z,4.05
2023-02-06T13:51:58.666Z,3.84
2023-02-06T13:54:43.740Z,3.69
2023-02-06T13:57:39.523Z,3.65
2023-02-06T14:00:23.260Z,3.24
2023-02-06T14:02:54.600Z,3.32
2023-02-06T14:05:26.875Z,3.24
2023-02-06T14:08:15.880Z,3.11
2023-02-06T14:11:04.585Z,2.98
2023-02-06T14:13:31.617Z,2.79
2023-02-06T14:16:29.575Z,2.68
2023-02-06T14:19:04.669Z,2.57
2023-02-06T14:21:51.733Z,2.54
2023-02-06T14:24:36.703Z,2.44
2023-02-06T14:27:42.522Z,2.41
2023-02-06T14:30:24.452Z,2.32
2023-02-06T14:33:10.192Z,2.23
2023-02-06T14:35:55.655Z,2.22
2023-02-06T14:38:54.472Z,2.18
2023-02-06T14:41:21.921Z,2.07
2023-02-06T14:43:51.324Z,1.94
2023-02-06T14:46:20.131Z,1.99
2023-02-06T14:48:53.852Z,2.00
2023-02-06T14:51:26.703Z,1.98
2023-02-06T14:54:01.815Z,1.90
2023-02-06T14:56:37.636Z,1.97
2023-02-06T14:59:13.820Z,2.04
2023-02-06T15:01:43.277Z,2.06
2023-02-06T15:04:13.906Z,1.94
2023-02-06T15:06:43.849Z,1.97
2023-02-06T15:09:30.307Z,1.95
2023-02-06T15:12:00.569Z,1.88
2023-02-06T15:14:33.527Z,1.89
2023-02-06T15:17:02.958Z,1.87
2023-02-06T15:19:35.754Z,1.82
2023-02-06T15:22:07.120Z,1.80
2023-02-06T15:24:40.256Z,1.76
2023-02-06T15:27:30.723Z,1.69
2023-02-06T15:29:59.087Z,1.67
2023-02-06T15:32:38.701Z,1.55
2023-02-06T15:35:20.992Z,1.45
2023-02-06T15:37:48.650Z,1.46
2023-02-06T15:40:31.193Z,1.31
2023-02-06T15:42:59.231Z,1.28
2023-02-06T15:45:34.545Z,1.26
2023-02-06T15:48:13.678Z,1.24
2023-02-06T15:50:40.931Z,1.26
2023-02-06T15:53:18.748Z,1.27
2023-02-06T15:55:56.675Z,1.20
2023-02-06T15:58:25.091Z,1.13
2023-02-06T16:00:57.312Z,1.11
2023-02-06T16:03:27.329Z,1.10
2023-02-06T16:05:56.652Z,1.07
2023-02-06T16:08:30.283Z,1.04
2023-02-06T16:11:05.359Z,1.02
2023-02-06T16:13:33.519Z,0.99
2023-02-06T16:16:09.294Z,0.94
2023-02-06T16:18:38.632Z,0.89
2023-02-06T16:21:17.848Z,0.87
2023-02-06T16:23:49.294Z,0.82
2023-02-06T16:26:25.379Z,0.77
2023-02-06T16:29:00.509Z,0.74
2023-02-06T16:31:30.004Z,0.69
2023-02-06T16:34:03.429Z,0.66
2023-02-06T16:36:32.712Z,0.59
2023-02-06T16:39:04.517Z,0.55
2023-02-06T16:41:35.024Z,0.49
2023-02-06T16:44:03.410Z,0.46
2023-02-06T16:46:30.838Z,0.42
2023-02-06T16:48:59.214Z,0.36
2023-02-06T16:51:29.811Z,0.32
2023-02-06T16:53:58.197Z,0.27
2023-02-06T16:56:25.334Z,0.21
2023-02-06T16:58:52.474Z,0.15
2023-02-06T17:01:26.707Z,0.09
2023-02-06T17:03:54.359Z,0.05
2023-02-06T17:06:26.655Z,-0.02
2023-02-06T17:08:58.002Z,-0.03
2023-02-06T17:11:25.243Z,-0.10
2023-02-06T17:13:52.157Z,-0.15
2023-02-06T17:16:21.692Z,-0.19
2023-02-06T17:18:49.507Z,-0.24
2023-02-06T17:21:19.724Z,-0.27
2023-02-06T17:23:49.210Z,-0.33
2023-02-06T17:26:21.812Z,-0.37
2023-02-06T17:28:49.675Z,-0.42
2023-02-06T17:31:17.547Z,-0.45
2023-02-06T17:33:44.663Z,-0.48
2023-02-06T17:36:29.641Z,-0.53
2023-02-06T17:38:59.146Z,-0.56
2023-02-06T17:41:27.617Z,-0.60
2023-02-06T17:43:54.960Z,-0.65
2023-02-06T17:46:22.755Z,-0.69
2023-02-06T17:48:49.753Z,-0.69
2023-02-06T17:51:16.827Z,-0.74
2023-02-06T17:53:43.884Z,-0.80
2023-02-06T17:56:13.237Z,-0.88
2023-02-06T17:58:41.531Z,-0.90
2023-02-06T18:01:20.034Z,-0.90
2023-02-06T18:03:48.127Z,-0.93
2023-02-06T18:06:15.593Z,-0.97
2023-02-06T18:08:43.462Z,-1.00
2023-02-06T18:11:16.580Z,-1.02
2023-02-06T18:13:43.998Z,-1.05
2023-02-06T18:16:21.029Z,-1.06
2023-02-06T18:18:48.749Z,-1.07
2023-02-06T18:21:16.698Z,-1.11
2023-02-06T18:23:43.737Z,-1.13
2023-02-06T18:26:10.969Z,-1.20
2023-02-06T18:28:39.779Z,-1.24
2023-02-06T18:31:21.920Z,-1.24
2023-02-06T18:33:49.086Z,-1.29
2023-02-06T18:36:16.055Z,-1.34
2023-02-06T18:38:43.044Z,-1.36
2023-02-06T18:41:29.964Z,-1.38
2023-02-06T18:44:00.479Z,-1.47
2023-02-06T18:46:27.557Z,-1.49
2023-02-06T18:48:55.212Z,-1.50
2023-02-06T18:51:22.272Z,-1.51
2023-02-06T18:53:49.744Z,-1.59
2023-02-06T18:56:16.905Z,-1.60
2023-02-06T18:58:43.913Z,-1.64
2023-02-06T19:01:17.511Z,-1.66
2023-02-06T19:03:45.363Z,-1.64
2023-02-06T19:06:18.515Z,-1.64
2023-02-06T19:08:46.791Z,-1.66
2023-02-06T19:11:14.168Z,-1.68
2023-02-06T19:13:41.529Z,-1.68
2023-02-06T19:16:12.727Z,-1.72
2023-02-06T19:18:42.245Z,-1.75
2023-02-06T19:21:12.147Z,-1.79
2023-02-06T19:23:40.091Z,-1.77
2023-02-06T19:26:09.149Z,-1.81
2023-02-06T19:28:38.460Z,-1.82
2023-02-06T19:31:07.050Z,-1.84
2023-02-06T19:33:36.305Z,-1.87
2023-02-06T19:36:23.044Z,-1.91
2023-02-06T19:38:53.709Z,-1.91
2023-02-06T19:41:24.022Z,-1.94
2023-02-06T19:43:52.773Z,-1.93
2023-02-06T19:46:23.197Z,-1.99
2023-02-06T19:48:51.244Z,-2.05
2023-02-06T19:51:25.162Z,-2.12
2023-02-06T19:53:54.055Z,-2.14
2023-02-06T19:56:32.934Z,-2.16
2023-02-06T19:59:01.872Z,-2.21
2023-02-06T20:01:30.719Z,-2.25
2023-02-06T20:03:59.591Z,-2.28
2023-02-06T20:06:29.642Z,-2.32
2023-02-06T20:08:57.411Z,-2.32
2023-02-06T20:11:24.466Z,-2.36
2023-02-06T20:13:55.740Z,-2.41
2023-02-06T20:16:25.860Z,-2.44
2023-02-06T20:18:53.926Z,-2.45
2023-02-06T20:21:29.649Z,-2.47
2023-02-06T20:24:01.841Z,-2.49
2023-02-06T20:26:33.786Z,-2.53
2023-02-06T20:29:01.190Z,-2.54
2023-02-06T20:31:28.237Z,-2.58
2023-02-06T20:33:55.846Z,-2.59
2023-02-06T20:36:25.186Z,-2.58
2023-02-06T20:38:58.848Z,-2.62
2023-02-06T20:41:29.705Z,-2.62
2023-02-06T20:43:57.968Z,-2.64
2023-02-06T20:46:26.267Z,-2.66
2023-02-06T20:48:56.929Z,-2.67
2023-02-06T20:51:24.615Z,-2.70
2023-02-06T20:53:52.104Z,-2.71
2023-02-06T20:56:20.288Z,-2.71
2023-02-06T20:58:47.633Z,-2.71
2023-02-06T21:01:20.453Z,-2.71
2023-02-06T21:03:47.703Z,-2.73
2023-02-06T21:06:15.733Z,-2.74
2023-02-06T21:08:43.128Z,-2.73
2023-02-06T21:11:10.204Z,-2.73
2023-02-06T21:13:40.002Z,-2.73
2023-02-06T21:16:07.403Z,-2.73
2023-02-06T21:18:34.562Z,-2.73
2023-02-06T21:21:13.038Z,-2.76
2023-02-06T21:23:41.424Z,-2.81
2023-02-06T21:26:09.825Z,-2.83
2023-02-06T21:28:37.936Z,-2.79
2023-02-06T21:31:06.543Z,-2.80
2023-02-06T21:33:34.635Z,-2.80
2023-02-06T21:36:02.303Z,-2.83
2023-02-06T21:38:29.768Z,-2.91
2023-02-06T21:40:58.597Z,-2.96
2023-02-06T21:43:25.508Z,-2.99
2023-02-06T21:45:52.437Z,-3.01
2023-02-06T21:48:19.410Z,-3.04
2023-02-06T21:50:46.328Z,-3.07
2023-02-06T21:53:13.479Z,-3.06
2023-02-06T21:55:44.868Z,-3.06
2023-02-06T21:58:16.837Z,-3.06
2023-02-06T22:00:45.484Z,-3.08
2023-02-06T22:03:13.289Z,-3.09
2023-02-06T22:05:40.695Z,-3.08
2023-02-06T22:08:07.623Z,-3.11
2023-02-06T22:10:38.237Z,-3.20
2023-02-06T22:13:06.122Z,-3.18
2023-02-06T22:15:34.062Z,-3.18
2023-02-06T22:18:01.130Z,-3.16
2023-02-06T22:20:28.433Z,-3.18
2023-02-06T22:22:55.878Z,-3.25
2023-02-06T22:25:23.008Z,-3.27
2023-02-06T22:27:50.104Z,-3.30
2023-02-06T22:30:17.215Z,-3.31
2023-02-06T22:32:44.215Z,-3.33
2023-02-06T22:35:11.236Z,-3.35
2023-02-06T22:37:38.344Z,-3.36
2023-02-06T22:40:08.168Z,-3.41
2023-02-06T22:42:36.393Z,-3.42
2023-02-06T22:45:03.503Z,-3.43
2023-02-06T22:47:30.552Z,-3.45
2023-02-06T22:49:57.483Z,-3.48
2023-02-06T22:52:45.107Z,-3.49
2023-02-06T22:55:12.822Z,-3.50
2023-02-06T22:57:39.772Z,-3.57
2023-02-06T23:00:09.604Z,-3.61
2023-02-06T23:02:38.462Z,-3.63
2023-02-06T23:05:05.825Z,-3.65
2023-02-06T23:07:32.795Z,-3.71
2023-02-06T23:09:59.806Z,-3.73
2023-02-06T23:12:26.826Z,-3.73
2023-02-06T23:14:54.026Z,-3.74
2023-02-06T23:17:20.954Z,-3.76
2023-02-06T23:19:48.003Z,-3.76
2023-02-06T23:22:14.923Z,-3.78
2023-02-06T23:24:41.863Z,-3.78
2023-02-06T23:27:09.090Z,-3.77
2023-02-06T23:29:35.983Z,-3.77
2023-02-06T23:32:02.928Z,-3.77
2023-02-06T23:34:29.878Z,-3.76
2023-02-06T23:36:56.800Z,-3.77
2023-02-06T23:39:23.816Z,-3.77
2023-02-06T23:41:50.809Z,-3.78
2023-02-06T23:44:18.074Z,-3.80
2023-02-06T23:46:45.027Z,-3.82
2023-02-06T23:49:12.174Z,-3.85
2023-02-06T23:51:39.266Z,-3.89
2023-02-06T23:54:08.186Z,-3.92
2023-02-06T23:56:36.057Z,-3.93
2023-02-06T23:59:04.267Z,-3.96
